Time;durP1;ratioP1;P1;durP2;ratioP2;P2;SDS_P1;SDS_P2;PMS_P1;PMS_P2;Temp;Humidity;BMP_temperature;BMP_pressure;BME280_temperature;BME280_humidity;BME280_pressure;Samples;Min_cycle;Max_cycle;Signal;HPM_P1;HPM_P2
2022/06/19 00:01:00;;;;;;;;;8.00;8.00;;;;;-146.67;31.58;72464.06;5087012;27;61954;-76
2022/06/19 00:03:32;;;;;;;;;9.33;9.00;;;;;-146.67;30.80;72491.97;5081996;27;62269;-76
2022/06/19 00:05:59;;;;;;;;;7.67;6.67;;;;;-146.67;30.86;72521.91;5097206;27;61820;-75
2022/06/19 00:08:27;;;;;;;;;7.67;6.67;;;;;-146.67;31.28;72579.78;5101634;27;61808;-76
2022/06/19 00:10:52;;;;;;;;;8.67;5.67;;;;;-146.67;31.37;72621.69;5066037;28;61849;-76
2022/06/19 00:13:18;;;;;;;;;8.67;8.33;;;;;-146.67;31.72;72635.66;5043783;28;61951;-76
2022/06/19 00:15:43;;;;;;;;;7.00;6.33;;;;;-146.67;31.34;72715.47;5087952;27;62006;-75
2022/06/19 00:18:09;;;;;;;;;6.33;5.33;;;;;-146.67;31.79;72719.47;5088221;27;62722;-75
2022/06/19 00:20:35;;;;;;;;;5.67;5.33;;;;;-146.67;31.59;72755.41;5079495;27;62215;-75
2022/06/19 00:23:00;;;;;;;;;8.67;6.33;;;;;-146.67;31.96;72763.38;5082613;28;61771;-75
2022/06/19 00:25:26;;;;;;;;;5.33;4.67;;;;;-146.67;31.90;72801.28;5098594;27;62123;-75
2022/06/19 00:27:51;;;;;;;;;7.00;6.00;;;;;-146.67;31.93;72829.22;5083503;27;63708;-75
2022/06/19 00:30:17;;;;;;;;;6.67;6.67;;;;;-146.67;32.06;72843.19;5086340;27;62219;-75
2022/06/19 00:32:42;;;;;;;;;5.33;4.00;;;;;-146.67;32.22;72869.13;5082411;27;61904;-76
2022/06/19 00:35:08;;;;;;;;;5.33;5.33;;;;;-146.67;32.17;72867.16;5082269;28;61829;-75
2022/06/19 00:37:34;;;;;;;;;5.67;4.33;;;;;-146.67;32.38;72889.09;5081095;27;61850;-75
2022/06/19 00:40:00;;;;;;;;;5.33;4.33;;;;;-146.67;32.16;72881.13;5060282;28;61939;-76
2022/06/19 00:42:26;;;;;;;;;8.33;6.67;;;;;-146.67;32.81;72893.09;5077155;28;61937;-76
2022/06/19 00:44:52;;;;;;;;;6.67;5.67;;;;;-146.67;32.37;72885.09;5100379;27;62156;-75
2022/06/19 00:47:20;;;;;;;;;6.67;4.67;;;;;-146.67;32.14;72903.06;5065657;28;63607;-75
2022/06/19 00:50:01;;;;;;;;;2.67;2.67;;;;;-146.67;31.91;72913.03;5080117;27;61793;-76
2022/06/19 00:52:35;;;;;;;;;6.67;5.00;;;;;-146.67;32.10;72948.97;5074062;27;62157;-76
2022/06/19 00:55:06;;;;;;;;;4.67;4.67;;;;;-146.67;31.68;72960.94;5102577;27;61792;-76
2022/06/19 00:57:38;;;;;;;;;4.67;3.67;;;;;-146.67;31.90;72992.88;5060225;28;63865;-76
2022/06/19 01:00:14;;;;;;;;;7.25;6.25;;;;;-146.67;31.79;72992.88;5061536;28;61706;-76
2022/06/19 01:02:41;;;;;;;;;4.00;4.00;;;;;-146.67;31.79;73012.84;5083727;27;61790;-75
2022/06/19 01:05:09;;;;;;;;;5.75;4.75;;;;;-146.67;31.50;73036.78;5087422;28;61850;-75
2022/06/19 01:07:35;;;;;;;;;4.75;3.75;;;;;-146.67;31.79;73058.72;5068830;28;64900;-75
2022/06/19 01:10:01;;;;;;;;;11.25;7.75;;;;;-146.67;31.76;73058.72;5088301;27;62056;-75
2022/06/19 01:12:26;;;;;;;;;10.50;9.75;;;;;-146.67;31.91;73100.66;5088754;28;61882;-75
2022/06/19 01:14:58;;;;;;;;;8.00;8.00;;;;;-146.67;31.82;73106.63;5087786;27;61755;-75
2022/06/19 01:17:24;;;;;;;;;7.50;6.50;;;;;-146.67;31.55;73130.59;5087939;28;63313;-75
2022/06/19 01:19:49;;;;;;;;;8.25;6.00;;;;;-146.67;31.32;73136.56;5081804;27;61764;-75
2022/06/19 01:22:46;;;;;;;;;8.50;5.00;;;;;-146.67;32.06;73144.56;5068145;28;61836;-75
2022/06/19 01:25:17;;;;;;;;;10.75;6.50;;;;;-146.67;32.16;73152.53;5084862;27;61979;-75
2022/06/19 01:30:33;;;;;;;;;9.50;7.50;;;;;-146.67;31.83;73162.50;5102250;27;62780;-74
2022/06/19 01:33:01;;;;;;;;;8.50;7.75;;;;;-146.67;32.02;73174.50;5069857;28;61993;-75
2022/06/19 01:35:31;;;;;;;;;9.25;7.50;;;;;-146.67;31.87;73178.47;5069271;28;61819;-75
2022/06/19 01:37:58;;;;;;;;;7.00;6.25;;;;;-146.67;31.76;73176.47;5087204;28;61862;-74
2022/06/19 01:40:32;;;;;;;;;8.00;6.25;;;;;-146.67;31.53;73188.47;5105346;27;61722;-75
2022/06/19 01:42:58;;;;;;;;;8.75;6.50;;;;;-146.67;31.65;73206.41;5089680;27;61903;-75
2022/06/19 01:45:24;;;;;;;;;6.25;5.75;;;;;-146.67;31.71;73202.44;5097328;27;61847;-75
2022/06/19 01:47:50;;;;;;;;;9.75;7.75;;;;;-146.67;31.12;73154.53;5087326;28;62004;-75
2022/06/19 01:50:20;;;;;;;;;6.25;4.00;;;;;-146.67;31.22;73188.47;5090661;27;62153;-75
2022/06/19 01:52:48;;;;;;;;;10.00;7.00;;;;;-146.67;31.66;73188.47;5069476;28;61788;-75
2022/06/19 01:55:18;;;;;;;;;9.50;6.75;;;;;-146.67;31.61;73162.50;5069933;28;61752;-74
2022/06/19 01:57:49;;;;;;;;;6.00;6.00;;;;;-146.67;31.65;73150.53;5068707;28;65001;-75
2022/06/19 02:00:21;;;;;;;;;6.75;5.75;;;;;-146.67;31.38;73176.47;5077127;28;61887;-75
2022/06/19 02:02:53;;;;;;;;;8.75;6.25;;;;;-146.67;31.44;73222.38;5078564;27;61791;-75
2022/06/19 02:05:19;;;;;;;;;7.50;6.75;;;;;-146.67;32.01;73238.34;5087712;28;61796;-75
2022/06/19 02:07:46;;;;;;;;;8.00;8.00;;;;;-146.67;31.82;73274.28;5068206;28;62680;-75
2022/06/19 02:10:11;;;;;;;;;9.00;7.00;;;;;-146.67;31.69;73300.22;5087772;28;61941;-75
2022/06/19 02:12:37;;;;;;;;;8.00;8.00;;;;;-146.67;32.18;73304.22;5087244;27;61876;-75
2022/06/19 02:15:08;;;;;;;;;17.00;7.00;;;;;-146.67;32.02;73278.28;5065733;28;62172;-75
2022/06/19 02:17:42;;;;;;;;;9.25;6.00;;;;;-146.67;31.89;73284.25;5061985;27;63625;-76
2022/06/19 02:20:09;;;;;;;;;7.00;7.00;;;;;-146.67;31.99;73286.25;5065740;28;61786;-75
2022/06/19 02:22:35;;;;;;;;;8.50;7.50;;;;;-146.67;32.10;73304.22;5084155;27;61788;-75
2022/06/19 02:25:02;;;;;;;;;9.00;6.00;;;;;-146.67;31.68;73302.22;5104821;27;62424;-76
2022/06/19 02:27:28;;;;;;;;;9.50;6.25;;;;;-146.67;32.09;73282.25;5104263;27;61850;-75
2022/06/19 02:29:54;;;;;;;;;7.50;6.00;;;;;-146.67;31.91;73276.28;5084059;27;61688;-75
2022/06/19 02:32:38;;;;;;;;;10.25;7.00;;;;;-146.67;31.73;73274.28;5084415;28;61839;-75
2022/06/19 02:35:08;;;;;;;;;6.00;5.00;;;;;-146.67;31.73;73262.31;5084087;28;61928;-75
2022/06/19 02:37:44;;;;;;;;;7.50;5.25;;;;;-146.67;31.56;73274.28;5083489;28;62746;-75
2022/06/19 02:40:38;;;;;;;;;8.33;6.00;;;;;-146.67;31.54;73284.25;5063832;28;61851;-75
2022/06/19 02:43:10;;;;;;;;;10.50;5.75;;;;;-146.67;31.77;73292.25;5091396;27;61856;-75
2022/06/19 02:45:39;;;;;;;;;10.50;7.00;;;;;-146.67;31.96;73308.22;5077460;27;61747;-75
2022/06/19 02:48:05;;;;;;;;;9.25;7.00;;;;;-146.67;31.51;73417.97;5098241;27;61933;-75
2022/06/19 02:50:34;;;;;;;;;5.75;4.75;;;;;-146.67;31.93;73579.66;5095045;27;62193;-75
2022/06/19 02:53:01;;;;;;;;;8.75;5.00;;;;;-146.67;32.11;73559.69;5099592;27;62069;-75
2022/06/19 02:55:27;;;;;;;;;6.25;5.00;;;;;-146.67;32.30;73545.72;5086093;27;61813;-75
2022/06/19 02:57:52;;;;;;;;;4.00;4.00;;;;;-146.67;32.67;73605.59;5087999;27;62103;-75
2022/06/19 03:00:26;;;;;;;;;6.00;6.00;;;;;-146.67;32.97;73653.50;5082739;27;62421;-76
2022/06/19 03:02:57;;;;;;;;;8.50;5.50;;;;;-146.67;32.87;73631.53;5084256;28;62195;-76
2022/06/19 03:05:26;;;;;;;;;4.00;4.00;;;;;-146.67;32.84;73683.44;5082705;27;62105;-75
2022/06/19 03:07:52;;;;;;;;;10.00;6.50;;;;;-146.67;33.75;73601.59;5073746;27;64056;-75
2022/06/19 03:10:18;;;;;;;;;8.50;5.25;;;;;-146.67;32.90;73637.53;5085678;27;61961;-75
2022/06/19 03:12:44;;;;;;;;;8.25;5.50;;;;;-146.67;33.77;73607.59;5073473;28;62239;-75
2022/06/19 03:15:11;;;;;;;;;14.00;6.25;;;;;-146.67;33.52;73633.53;5045617;27;61891;-76
2022/06/19 03:17:36;;;;;;;;;7.00;7.00;;;;;-146.67;33.46;73665.47;5051879;28;65075;-75
2022/06/19 03:20:03;;;;;;;;;8.00;5.50;;;;;-146.67;33.21;73667.47;5082668;27;61997;-76
2022/06/19 03:22:29;;;;;;;;;5.50;5.50;;;;;-146.67;33.44;73667.47;5083499;28;61707;-75
2022/06/19 03:24:54;;;;;;;;;7.75;6.50;;;;;-146.67;34.47;73685.44;5068712;27;62089;-76
2022/06/19 03:27:19;;;;;;;;;10.00;6.50;;;;;-146.67;34.10;73655.50;5100974;27;63658;-76
2022/06/19 03:29:45;;;;;;;;;10.25;8.00;;;;;-146.67;34.03;73637.53;5098836;27;61929;-76
2022/06/19 03:32:12;;;;;;;;;10.25;9.00;;;;;-146.67;33.94;73617.56;5063494;28;62244;-75
2022/06/19 03:34:39;;;;;;;;;12.75;9.50;;;;;-146.67;33.53;73649.50;5066773;27;61760;-75
2022/06/19 03:37:04;;;;;;;;;8.25;7.50;;;;;-146.67;33.04;73659.50;5103106;27;62627;-75
2022/06/19 03:39:30;;;;;;;;;13.00;8.25;;;;;-146.67;33.43;73659.50;5082804;27;62028;-75
2022/06/19 03:41:56;;;;;;;;;19.25;8.00;;;;;-146.67;33.69;73705.41;5072244;27;62490;-76
2022/06/19 03:44:21;;;;;;;;;13.75;9.50;;;;;-146.67;33.77;73695.41;5102881;27;62107;-76
2022/06/19 03:46:46;;;;;;;;;8.75;8.75;;;;;-146.67;34.12;73715.38;5084810;27;61783;-75
2022/06/19 03:49:12;;;;;;;;;11.75;10.00;;;;;-146.67;33.91;73695.41;5103659;27;61758;-75
2022/06/19 03:51:37;;;;;;;;;11.50;8.75;;;;;-146.67;34.19;73701.41;5086376;27;61771;-75
2022/06/19 03:54:03;;;;;;;;;9.75;9.50;;;;;-146.67;33.88;73703.41;5085145;27;61988;-75
2022/06/19 03:56:31;;;;;;;;;11.75;7.25;;;;;-146.67;34.04;73693.44;5083318;27;63471;-75
2022/06/19 03:58:58;;;;;;;;;14.25;10.00;;;;;-146.67;34.11;73647.50;5062510;28;61914;-76
2022/06/19 04:01:28;;;;;;;;;8.25;6.50;;;;;-146.67;33.83;73615.59;5082043;27;61964;-75
2022/06/19 04:03:55;;;;;;;;;7.00;7.00;;;;;-146.67;33.85;73603.59;5064330;28;62820;-75
2022/06/19 04:06:24;;;;;;;;;10.00;7.00;;;;;-146.67;33.78;73621.56;5082059;28;62304;-75
2022/06/19 04:08:51;;;;;;;;;6.00;6.00;;;;;-146.67;33.61;73629.56;5081775;27;61997;-75
2022/06/19 04:11:18;;;;;;;;;11.25;8.50;;;;;-146.67;34.03;73647.50;5064495;28;61891;-76
2022/06/19 04:13:44;;;;;;;;;9.50;7.00;;;;;-146.67;33.52;73661.50;5082451;27;62113;-75
2022/06/19 04:16:15;;;;;;;;;11.75;9.00;;;;;-146.67;33.94;73647.50;5081700;27;62684;-75
2022/06/19 04:18:41;;;;;;;;;9.00;7.00;;;;;-146.67;33.80;73629.56;5082121;27;62015;-76
2022/06/19 04:21:11;;;;;;;;;7.50;5.25;;;;;-146.67;34.45;73601.59;5082536;28;61900;-75
2022/06/19 04:23:37;;;;;;;;;10.50;9.50;;;;;-146.67;34.61;73587.63;5089808;27;62109;-75
2022/06/19 04:26:02;;;;;;;;;10.25;7.25;;;;;-146.67;35.13;73567.69;5100941;27;61849;-75
2022/06/19 04:28:27;;;;;;;;;9.25;8.75;;;;;-146.67;35.11;73533.75;5082966;27;61749;-76
2022/06/19 04:30:53;;;;;;;;;8.00;4.75;;;;;-146.67;35.52;73515.78;5063082;27;62587;-75
2022/06/19 04:33:20;;;;;;;;;8.75;5.75;;;;;-146.67;35.24;73517.78;5081507;27;61751;-75
2022/06/19 04:35:47;;;;;;;;;12.75;7.75;;;;;-146.67;35.02;73589.63;5081465;28;62236;-75
2022/06/19 04:38:13;;;;;;;;;7.75;7.75;;;;;-146.67;34.95;73605.59;5062953;28;61875;-75
2022/06/19 04:40:39;;;;;;;;;10.00;7.25;;;;;-146.67;35.88;73633.53;5082271;28;62093;-75
2022/06/19 04:43:06;;;;;;;;;7.00;6.75;;;;;-146.67;34.11;73653.50;5082159;27;62468;-75
2022/06/19 04:45:33;;;;;;;;;9.00;9.00;;;;;-146.67;35.14;73583.66;5081268;27;62798;-75
2022/06/19 04:47:58;;;;;;;;;9.00;6.00;;;;;-146.67;35.52;73559.69;5063519;28;62222;-75
2022/06/19 04:50:24;;;;;;;;;9.25;5.75;;;;;-146.67;35.35;73569.66;5081618;28;62225;-75
2022/06/19 04:52:50;;;;;;;;;9.75;6.75;;;;;-146.67;34.60;73569.66;5096062;27;61877;-75
2022/06/19 04:55:16;;;;;;;;;4.50;3.50;;;;;-146.67;34.50;73555.69;5101970;27;61900;-75
2022/06/19 04:57:42;;;;;;;;;9.75;5.00;;;;;-146.67;35.06;73577.66;5088296;27;61806;-75
2022/06/19 05:00:12;;;;;;;;;6.75;5.75;;;;;-146.67;34.34;73637.53;5081354;28;61873;-75
2022/06/19 05:02:38;;;;;;;;;5.25;4.25;;;;;-146.67;35.21;73601.59;5059962;28;62152;-74
2022/06/19 05:05:05;;;;;;;;;4.75;3.00;;;;;-146.67;35.61;73549.72;5061290;28;62021;-75
2022/06/19 05:07:32;;;;;;;;;9.00;6.25;;;;;-146.67;35.75;73567.69;5072038;27;62201;-75
2022/06/19 05:09:57;;;;;;;;;7.25;6.00;;;;;-146.67;35.69;73589.63;5081758;28;62089;-76
2022/06/19 05:12:23;;;;;;;;;4.75;3.00;;;;;-146.67;35.68;73601.59;5081716;27;62073;-75
2022/06/19 05:14:49;;;;;;;;;5.75;4.25;;;;;-146.67;35.54;73593.63;5080894;27;62557;-75
2022/06/19 05:17:14;;;;;;;;;4.25;3.50;;;;;-146.67;35.47;73613.59;5081752;28;62263;-75
2022/06/19 05:19:41;;;;;;;;;4.25;4.25;;;;;-146.67;35.23;73631.53;5081578;27;61930;-76
2022/06/19 05:22:07;;;;;;;;;3.25;3.00;;;;;-146.67;35.86;73621.56;5081428;28;61947;-75
2022/06/19 05:24:32;;;;;;;;;9.75;5.00;;;;;-146.67;35.39;73609.59;5080784;27;61830;-76
2022/06/19 05:26:58;;;;;;;;;6.00;6.00;;;;;-146.67;35.35;73583.66;5063105;28;61969;-74
2022/06/19 05:29:23;;;;;;;;;4.00;2.25;;;;;-146.67;35.05;73557.69;5081803;28;62168;-75
2022/06/19 05:31:49;;;;;;;;;3.00;3.00;;;;;-146.67;35.09;73551.72;5081449;27;62174;-75
2022/06/19 05:34:15;;;;;;;;;6.25;4.75;;;;;-146.67;35.37;73535.75;5062738;28;63630;-75
2022/06/19 05:36:40;;;;;;;;;4.50;2.25;;;;;-146.67;35.13;73547.72;5062129;28;61847;-75
2022/06/19 05:39:06;;;;;;;;;3.75;3.50;;;;;-146.67;34.59;73571.66;5081176;28;62227;-75
2022/06/19 05:41:33;;;;;;;;;3.00;3.00;;;;;-146.67;34.82;73607.59;5061885;28;61879;-75
2022/06/19 05:43:59;;;;;;;;;4.00;2.75;;;;;-146.67;35.78;73621.56;5080730;28;61700;-75
2022/06/19 05:46:24;;;;;;;;;2.25;2.25;;;;;-146.67;34.94;73645.53;5071304;27;61867;-75
2022/06/19 05:48:50;;;;;;;;;3.25;3.00;;;;;-146.67;35.41;73669.47;5071554;27;62116;-75
2022/06/19 05:51:20;;;;;;;;;3.25;1.50;;;;;-146.67;35.55;73681.44;5065737;28;61815;-75
2022/06/19 05:53:50;;;;;;;;;2.75;2.00;;;;;-146.67;35.73;73655.50;5093316;27;61944;-75
2022/06/19 05:56:15;;;;;;;;;3.25;2.25;;;;;-146.67;36.00;73607.59;5105258;27;61822;-75
2022/06/19 05:58:41;;;;;;;;;3.75;2.00;;;;;-146.67;35.52;73591.63;5096602;27;62299;-74
2022/06/19 06:01:08;;;;;;;;;3.50;0.00;;;;;-146.67;35.38;73583.66;5090764;27;61950;-75
2022/06/19 06:03:34;;;;;;;;;1.00;1.00;;;;;-146.67;35.41;73581.66;5083901;27;61919;-75
2022/06/19 06:06:01;;;;;;;;;0.50;0.50;;;;;-146.67;34.97;73569.66;5082495;28;62091;-75
2022/06/19 06:08:28;;;;;;;;;1.00;1.00;;;;;-146.67;34.70;73557.69;5077929;27;62773;-76
2022/06/19 06:10:53;;;;;;;;;1.50;1.50;;;;;-146.67;35.29;73531.75;5071932;28;61798;-75
2022/06/19 06:13:19;;;;;;;;;5.00;2.00;;;;;-146.67;35.44;73489.84;5071753;28;62341;-75
2022/06/19 06:15:46;;;;;;;;;2.75;1.50;;;;;-146.67;34.87;73509.78;5071859;28;61995;-75
2022/06/19 06:18:12;;;;;;;;;2.00;1.00;;;;;-146.67;34.50;73511.78;5070653;28;61938;-76
2022/06/19 06:20:37;;;;;;;;;3.00;2.00;;;;;-146.67;35.01;73543.72;5072453;28;62028;-75
2022/06/19 06:23:03;;;;;;;;;3.00;2.00;;;;;-146.67;35.45;73573.66;5070931;28;61877;-75
2022/06/19 06:25:28;;;;;;;;;4.25;2.50;;;;;-146.67;34.84;73587.63;5073665;28;61789;-75
2022/06/19 06:27:54;;;;;;;;;7.25;1.00;;;;;-146.67;35.33;73625.56;5071077;28;61841;-76
2022/06/19 06:30:19;;;;;;;;;1.00;1.00;;;;;-146.67;35.33;73649.50;5055004;28;61994;-75
2022/06/19 06:32:44;;;;;;;;;3.00;1.00;;;;;-146.67;35.08;73655.50;5072099;28;61813;-76
2022/06/19 06:35:10;;;;;;;;;2.50;2.50;;;;;-146.67;35.15;73675.47;5071730;28;61765;-76
2022/06/19 06:37:36;;;;;;;;;1.00;1.00;;;;;-146.67;35.25;73613.59;5071022;28;62176;-75
2022/06/19 06:40:05;;;;;;;;;2.50;1.25;;;;;-146.67;35.17;73701.41;5073562;28;61732;-75
2022/06/19 06:42:31;;;;;;;;;1.00;1.00;;;;;-146.67;35.96;73729.34;5048609;28;64771;-75
2022/06/19 06:44:56;;;;;;;;;3.50;1.00;;;;;-146.67;36.75;73687.44;5054041;28;62033;-75
2022/06/19 06:47:22;;;;;;;;;3.00;1.75;;;;;-146.67;36.08;73653.50;5051615;28;61968;-75
2022/06/19 06:49:47;;;;;;;;;2.00;1.00;;;;;-146.67;36.15;73647.50;5050768;28;62219;-74
2022/06/19 06:52:13;;;;;;;;;4.50;2.25;;;;;-146.67;36.68;73605.59;5071395;28;62020;-75
2022/06/19 06:54:40;;;;;;;;;4.25;2.25;;;;;-146.67;35.95;73611.59;5052373;28;61928;-76
2022/06/19 06:57:06;;;;;;;;;4.50;2.25;;;;;-146.67;36.25;73647.50;5065318;28;61774;-75
2022/06/19 06:59:32;;;;;;;;;1.00;1.00;;;;;-146.67;35.84;73639.53;5048007;28;61814;-74
2022/06/19 07:01:58;;;;;;;;;3.00;1.25;;;;;-146.67;35.64;73597.63;5058728;28;63010;-75
2022/06/19 07:04:24;;;;;;;;;5.00;1.75;;;;;-146.67;35.75;73579.66;5073975;28;61820;-74
2022/06/19 07:06:49;;;;;;;;;3.50;3.00;;;;;-146.67;35.56;73569.66;5070823;28;62203;-79
2022/06/19 07:09:15;;;;;;;;;3.25;2.00;;;;;-146.67;34.70;73591.63;5060346;28;61762;-78
2022/06/19 07:11:43;;;;;;;;;3.50;1.75;;;;;-146.67;34.75;73669.47;5081810;28;62027;-79
2022/06/19 07:14:09;;;;;;;;;3.75;2.25;;;;;-146.67;35.99;73683.44;5083523;27;61774;-76
2022/06/19 07:16:36;;;;;;;;;5.00;2.00;;;;;-146.67;34.86;73713.38;5083340;28;62209;-75
2022/06/19 07:19:01;;;;;;;;;2.00;2.00;;;;;-146.67;35.55;73731.34;5083546;27;61889;-75
2022/06/19 07:21:27;;;;;;;;;2.25;2.00;;;;;-146.67;36.23;73727.34;5082825;28;62678;-75
2022/06/19 07:23:53;;;;;;;;;3.00;2.00;;;;;-146.67;36.17;73691.44;5087572;27;62147;-76
2022/06/19 07:26:21;;;;;;;;;2.00;1.00;;;;;-146.67;35.76;73645.53;5083932;28;62071;-76
2022/06/19 07:28:47;;;;;;;;;0.50;0.50;;;;;-146.67;35.16;73683.44;5069765;27;61926;-76
2022/06/19 07:31:13;;;;;;;;;1.50;1.50;;;;;-146.67;34.93;73753.31;5083665;27;64282;-76
2022/06/19 07:33:39;;;;;;;;;3.75;2.25;;;;;-146.67;35.35;73807.19;5103031;27;61973;-77
2022/06/19 07:36:13;;;;;;;;;0.75;0.75;;;;;-146.67;35.89;73815.19;5094048;27;61992;-76
2022/06/19 07:38:39;;;;;;;;;2.00;2.00;;;;;-146.67;36.20;73799.22;5082019;27;62334;-76
2022/06/19 07:41:04;;;;;;;;;1.25;1.25;;;;;-146.67;35.62;73761.28;5082173;28;62356;-76
2022/06/19 07:43:30;;;;;;;;;2.75;1.25;;;;;-146.67;35.82;73701.41;5081700;27;62005;-76
2022/06/19 07:45:55;;;;;;;;;1.50;1.50;;;;;-146.67;35.36;73683.44;5082457;28;62052;-75
2022/06/19 07:51:19;;;;;;;;;1.25;1.00;;;;;-146.67;34.71;73721.38;5047016;27;62517;-73
2022/06/19 07:53:44;;;;;;;;;3.00;3.00;;;;;-146.67;34.65;73735.34;5081728;28;61820;-74
2022/06/19 07:56:10;;;;;;;;;2.00;1.00;;;;;-146.67;34.65;73765.28;5085776;27;62487;-75
2022/06/19 07:58:36;;;;;;;;;3.00;2.25;;;;;-146.67;34.51;73777.25;5081768;27;61846;-74
2022/06/19 08:01:03;;;;;;;;;2.00;2.00;;;;;-146.67;34.78;73827.16;5080057;27;62035;-75
2022/06/19 08:03:28;;;;;;;;;2.75;2.00;;;;;-146.67;35.24;73899.03;5063559;28;62168;-74
2022/06/19 08:05:54;;;;;;;;;1.75;1.75;;;;;-146.67;35.41;73913.00;5062255;27;62450;-78
2022/06/19 08:08:24;;;;;;;;;1.00;1.00;;;;;-146.67;35.76;73849.13;5047064;28;62520;-74
2022/06/19 08:10:52;;;;;;;;;1.50;1.50;;;;;-146.67;35.60;73799.22;5081729;27;62329;-75
2022/06/19 08:13:29;;;;;;;;;1.50;1.50;;;;;-146.67;36.17;73725.38;5064002;28;61965;-78
2022/06/19 08:15:58;;;;;;;;;2.75;1.75;;;;;-146.67;35.89;73667.47;5078431;27;62008;-75
2022/06/19 08:18:25;;;;;;;;;3.00;3.00;;;;;-146.67;36.01;73603.59;5081864;27;61865;-72
2022/06/19 08:20:52;;;;;;;;;3.00;3.00;;;;;-146.67;35.43;73509.78;5081454;28;62114;-73
2022/06/19 08:23:17;;;;;;;;;5.75;2.50;;;;;-146.67;34.53;73485.84;5084933;27;61735;-74
2022/06/19 08:25:45;;;;;;;;;4.00;3.00;;;;;-146.67;34.90;73483.84;5102901;27;61942;-73
2022/06/19 08:28:11;;;;;;;;;4.25;3.25;;;;;-146.67;34.74;73487.84;5087268;27;62000;-73
2022/06/19 08:30:43;;;;;;;;;2.25;2.00;;;;;-146.67;35.19;73511.78;5080368;28;61988;-73
2022/06/19 08:33:09;;;;;;;;;2.25;2.00;;;;;-146.67;34.93;73525.75;5051770;28;62188;-73
2022/06/19 08:35:49;;;;;;;;;4.00;4.00;;;;;-146.67;34.65;73517.78;5080773;28;62313;-79
2022/06/19 08:38:21;;;;;;;;;3.50;2.00;;;;;-146.67;35.20;73507.78;5078957;27;62056;-81
2022/06/19 08:40:52;;;;;;;;;5.25;2.25;;;;;-146.67;34.98;73501.81;5075619;28;64002;-76
2022/06/19 08:43:23;;;;;;;;;4.00;4.00;;;;;-146.67;34.14;73499.81;5076766;27;62017;-76
2022/06/19 08:46:08;;;;;;;;;4.50;2.75;;;;;-146.67;35.16;73503.81;5059625;28;62786;-76
2022/06/19 08:48:55;;;;;;;;;5.00;3.50;;;;;-146.67;34.67;73483.84;5063755;28;61796;-75
2022/06/19 08:52:02;;;;;;;;;4.25;4.00;;;;;-146.67;34.38;73477.84;5068887;28;61784;-76
2022/06/19 08:54:42;;;;;;;;;4.75;4.00;;;;;-146.67;34.74;73499.81;5068210;27;62027;-83
2022/06/19 08:57:40;;;;;;;;;3.00;3.00;;;;;-146.67;34.49;73491.84;5078535;28;62250;-79
2022/06/19 09:00:09;;;;;;;;;6.75;4.25;;;;;-146.67;33.89;73469.88;5075550;27;62518;-78
2022/06/19 09:02:39;;;;;;;;;5.00;5.00;;;;;-146.67;34.15;73447.91;5084509;27;61973;-78
2022/06/19 09:08:01;;;;;;;;;5.50;3.25;;;;;-146.67;32.88;73366.09;5079501;27;61928;-80
2022/06/19 09:10:55;;;;;;;;;9.25;5.75;;;;;-146.67;33.06;73338.16;5081824;27;61948;-79
2022/06/19 09:13:52;;;;;;;;;3.50;3.25;;;;;-146.67;32.75;73310.19;5078617;28;64568;-78
2022/06/19 09:16:33;;;;;;;;;5.00;4.00;;;;;-146.67;32.56;73310.19;5094471;27;62440;-79
2022/06/19 09:19:06;;;;;;;;;5.25;3.25;;;;;-146.67;32.36;73310.19;5080984;27;62079;-80
2022/06/19 09:21:50;;;;;;;;;3.25;3.25;;;;;-146.67;32.35;73310.19;5061032;27;62035;-82
2022/06/19 09:24:37;;;;;;;;;4.75;4.00;;;;;-146.67;32.80;73372.06;5079905;27;62997;-79
2022/06/19 09:27:04;;;;;;;;;3.50;3.50;;;;;-146.67;33.14;73372.06;5083272;27;62303;-81
2022/06/19 09:29:53;;;;;;;;;5.00;4.00;;;;;-146.67;32.82;73378.06;5079126;27;61943;-78
2022/06/19 09:32:26;;;;;;;;;7.25;6.25;;;;;-146.67;32.27;73396.03;5061437;28;62020;-78
2022/06/19 09:35:07;;;;;;;;;5.75;4.00;;;;;-146.67;32.60;73378.06;5078901;27;61892;-77
2022/06/19 09:37:47;;;;;;;;;6.00;6.00;;;;;-146.67;32.50;73392.03;5045988;27;62347;-80
2022/06/19 09:40:19;;;;;;;;;4.75;4.75;;;;;-146.67;32.55;73390.03;5080474;27;61879;-79
2022/06/19 09:42:54;;;;;;;;;12.25;11.75;;;;;-146.67;32.64;73386.03;5078898;27;62125;-85
2022/06/19 09:45:36;;;;;;;;;3.75;3.75;;;;;-146.67;32.01;73382.06;5060088;27;63787;-79
2022/06/19 09:48:18;;;;;;;;;5.50;4.25;;;;;-146.67;32.10;73386.03;5078467;27;63039;-78
2022/06/19 09:51:10;;;;;;;;;7.25;6.75;;;;;-146.67;32.23;73366.09;5078491;27;61961;-79
2022/06/19 09:53:39;;;;;;;;;7.00;5.00;;;;;-146.67;31.70;73356.09;4977371;28;62031;-81
2022/06/19 09:56:40;;;;;;;;;8.00;6.75;;;;;-146.67;31.77;73368.09;4976150;28;64064;-82
2022/06/19 09:59:29;;;;;;;;;7.50;5.75;;;;;-146.67;32.29;73348.13;4993347;28;61974;-78
2022/06/19 10:02:05;;;;;;;;;8.25;6.25;;;;;-146.67;31.84;73288.25;4992335;28;62398;-76
2022/06/19 10:05:05;;;;;;;;;9.75;6.50;;;;;-146.67;31.20;73222.38;4989257;28;62307;-84
2022/06/19 10:07:43;;;;;;;;;6.25;5.00;;;;;-146.67;30.91;73188.47;4985994;28;63537;-78
2022/06/19 10:10:31;;;;;;;;;7.50;6.25;;;;;-146.67;31.00;73200.44;4987124;28;62936;-75
2022/06/19 10:13:38;;;;;;;;;4.75;4.75;;;;;-146.67;30.66;73218.41;4994447;28;62273;-76
2022/06/19 10:16:14;;;;;;;;;13.75;8.75;;;;;-146.67;30.73;73224.38;4985413;28;62817;-75
2022/06/19 10:18:47;;;;;;;;;16.50;9.00;;;;;-146.67;31.27;73222.38;4980753;28;63742;-76
2022/06/19 10:24:48;;;;;;;;;8.25;6.50;;;;;-146.67;31.48;73276.28;4975341;28;62062;-76
2022/06/19 10:27:36;;;;;;;;;11.00;7.00;;;;;-146.67;31.37;73258.31;4978430;28;62116;-76
2022/06/19 10:30:07;;;;;;;;;12.25;8.75;;;;;-146.67;31.33;73274.28;4988231;28;61777;-77
2022/06/19 10:33:00;;;;;;;;;11.00;7.50;;;;;-146.67;31.72;73268.28;5003263;28;62151;-77
2022/06/19 10:35:58;;;;;;;;;8.50;8.50;;;;;-146.67;31.87;73240.34;4990443;28;61831;-77
2022/06/19 10:39:05;;;;;;;;;13.75;8.75;;;;;-146.67;31.48;73232.38;5028039;28;61913;-77
2022/06/19 10:42:20;;;;;;;;;12.50;9.00;;;;;-146.67;30.94;73244.34;5027000;28;64268;-77
2022/06/19 10:45:14;;;;;;;;;10.25;10.25;;;;;-146.67;31.42;73264.31;5036064;28;62316;-76
2022/06/19 10:47:54;;;;;;;;;16.75;10.00;;;;;-146.67;32.20;73286.25;5022063;28;61877;-76
2022/06/19 10:50:43;;;;;;;;;10.25;8.75;;;;;-146.67;31.54;73280.25;5040196;28;62184;-76
2022/06/19 10:53:18;;;;;;;;;10.75;8.00;;;;;-146.67;31.68;73266.28;5048156;28;62527;-78
2022/06/19 10:55:52;;;;;;;;;15.50;10.00;;;;;-146.67;31.91;73240.34;5062828;27;61707;-76
2022/06/19 10:58:24;;;;;;;;;13.00;10.25;;;;;-146.67;31.54;73224.38;5059211;28;62574;-76
2022/06/19 11:01:02;;;;;;;;;12.50;10.00;;;;;-146.67;31.67;73196.44;5054907;28;62229;-75
2022/06/19 11:06:27;;;;;;;;;10.25;10.25;;;;;-146.67;31.86;73206.41;5055149;28;62485;-76
2022/06/19 11:09:01;;;;;;;;;13.50;9.50;;;;;-146.67;31.53;73158.53;5042239;28;62041;-76
2022/06/19 11:11:29;;;;;;;;;9.50;8.25;;;;;-146.67;31.45;73144.56;5062360;28;61893;-75
2022/06/19 11:13:59;;;;;;;;;9.00;9.00;;;;;-146.67;31.12;73174.50;5063411;28;61905;-78
2022/06/19 11:16:25;;;;;;;;;10.25;8.25;;;;;-146.67;31.28;73166.50;5083416;28;62080;-80
2022/06/19 11:18:54;;;;;;;;;8.25;8.25;;;;;-146.67;31.37;73224.38;5066241;28;61954;-75
2022/06/19 11:21:29;;;;;;;;;9.00;7.00;;;;;-146.67;31.38;73246.34;5060495;28;61978;-82
2022/06/19 11:24:00;;;;;;;;;14.75;11.75;;;;;-146.67;31.56;73194.44;5058031;28;62200;-75
2022/06/19 11:26:40;;;;;;;;;11.75;9.00;;;;;-146.67;30.89;73126.59;5058925;28;61784;-79
2022/06/19 11:29:14;;;;;;;;;8.00;8.00;;;;;-146.67;30.82;73114.63;5062954;28;61925;-83
2022/06/19 11:31:59;;;;;;;;;8.50;7.50;;;;;-146.67;30.64;73112.63;5067262;28;62014;-74
2022/06/19 11:34:44;;;;;;;;;10.75;6.00;;;;;-146.67;30.61;73102.63;5063918;28;62753;-75
2022/06/19 11:37:15;;;;;;;;;8.75;7.50;;;;;-146.67;30.57;73088.66;5036251;28;61918;-78
2022/06/19 11:39:44;;;;;;;;;9.00;8.00;;;;;-146.67;30.27;73054.75;5041357;28;61999;-78
2022/06/19 11:42:31;;;;;;;;;8.33;6.67;;;;;-146.67;30.17;73030.78;5042612;28;61886;-77
2022/06/19 11:45:01;;;;;;;;;8.00;5.75;;;;;-146.67;29.65;72988.88;5041591;28;61813;-78